CheckWX is a tool to help pilots better visualize weather data.  It is not intended as a substitute for an official pre-flight weather briefing.

10:07:00 UTC

KSPF METAR
Black Hills-Clyde Ice Field Airport
Spearfish, South Dakota, USA
Current

12 mins ago

KSPF 200955Z AUTO 24003KT 10SM FEW013 FEW021 OVC028 M14/M17 A2959 RMK AO2 PWINO
Observed
Feb-20 @ 09:55 UTC
Wind
  • 240° at 3 KTS
Visibility
16,093 meters
Flight Rules
MVFR
Cloud Levels
  • Few at 1,300' AGL
  • Few at 2,100' AGL
  • Overcast at 2,800' AGL
Temperature
-14°C / 7°F
Dewpoint
-17°C / 1°F
Humidity
78%
Altimeter
29.59" Hg
Pressure
1002.02 hPa
Previous

32 mins ago

KSPF 200935Z AUTO 20008KT 10SM OVC029 M13/M16 A2959 RMK AO2 PWINO
Observed
Feb-20 @ 09:35 UTC
Wind
  • 200° at 8 KTS
Visibility
16,093 meters
Flight Rules
MVFR
Cloud Levels
  • Overcast at 2,900' AGL
Temperature
-13°C / 9°F
Dewpoint
-16°C / 3°F
Humidity
78%
Altimeter
29.59" Hg
Pressure
1002.02 hPa
Previous

52 mins ago

KSPF 200915Z AUTO 00000KT 10SM BKN028 BKN050 OVC065 M13/M16 A2961 RMK AO2 PWINO
Observed
Feb-20 @ 09:15 UTC
Visibility
16,093 meters
Flight Rules
MVFR
Cloud Levels
  • Broken at 2,800' AGL
  • Broken at 5,000' AGL
  • Overcast at 6,500' AGL
Temperature
-13°C / 9°F
Dewpoint
-16°C / 3°F
Humidity
78%
Altimeter
29.61" Hg
Pressure
1002.72 hPa